createdAt,value
2022-09-05T00:02:49.231Z,20.19
2022-09-05T00:05:25.691Z,20.05
2022-09-05T00:08:02.472Z,19.54
2022-09-05T00:10:47.973Z,18.98
2022-09-05T00:13:30.277Z,19.26
2022-09-05T00:16:06.072Z,19.67
2022-09-05T00:24:17.322Z,19.80
2022-09-05T00:24:19.519Z,19.70
2022-09-05T00:25:07.232Z,19.95
2022-09-05T00:27:46.735Z,19.72
2022-09-05T00:31:08.970Z,19.72
2022-09-05T00:33:23.703Z,19.55
2022-09-05T00:36:07.819Z,19.48
2022-09-05T00:38:37.467Z,19.58
2022-09-05T00:41:08.153Z,19.69
2022-09-05T00:43:37.212Z,19.68
2022-09-05T00:46:10.298Z,19.65
2022-09-05T00:48:47.097Z,19.59
2022-09-05T00:51:29.214Z,19.56
2022-09-05T00:54:41.269Z,19.49
2022-09-05T00:57:28.286Z,19.41
2022-09-05T01:00:08.045Z,19.44
2022-09-05T01:02:56.817Z,19.48
2022-09-05T01:05:37.308Z,19.50
2022-09-05T01:08:37.171Z,19.30
2022-09-05T01:11:11.895Z,18.46
2022-09-05T01:13:47.330Z,18.73
2022-09-05T01:16:23.657Z,18.62
2022-09-05T01:19:01.187Z,18.73
2022-09-05T01:22:06.096Z,18.79
2022-09-05T01:24:46.688Z,18.66
2022-09-05T01:27:56.227Z,18.94
2022-09-05T01:30:31.766Z,18.87
2022-09-05T01:33:08.584Z,18.94
2022-09-05T01:36:03.345Z,19.09
2022-09-05T01:38:38.205Z,18.83
2022-09-05T01:41:19.893Z,18.91
2022-09-05T01:44:07.877Z,18.94
2022-09-05T01:46:43.584Z,18.70
2022-09-05T01:49:25.135Z,18.80
2022-09-05T01:52:21.838Z,18.77
2022-09-05T01:55:03.140Z,18.59
2022-09-05T01:57:39.444Z,18.48
2022-09-05T02:00:12.889Z,18.65
2022-09-05T02:02:53.165Z,18.53
2022-09-05T02:05:51.215Z,18.55
2022-09-05T02:08:29.075Z,18.47
2022-09-05T02:11:05.840Z,18.62
2022-09-05T02:13:54.413Z,18.68
2022-09-05T02:16:30.043Z,18.63
2022-09-05T02:19:01.703Z,18.82
2022-09-05T02:21:56.326Z,18.80
2022-09-05T02:24:29.559Z,18.83
2022-09-05T02:27:28.262Z,18.67
2022-09-05T02:30:08.660Z,18.63
2022-09-05T02:32:48.223Z,18.24
2022-09-05T02:35:21.937Z,18.02
2022-09-05T02:42:17.210Z,18.44
2022-09-05T02:45:09.269Z,18.54
2022-09-05T02:45:19.795Z,18.36
2022-09-05T02:46:31.284Z,18.57
2022-09-05T02:49:23.407Z,18.55
2022-09-05T02:57:29.067Z,18.32
2022-09-05T02:57:33.269Z,17.62
2022-09-05T02:58:04.740Z,17.36
2022-09-05T03:00:39.314Z,17.26
2022-09-05T03:03:20.798Z,17.81
2022-09-05T03:05:56.858Z,17.40
2022-09-05T03:08:55.398Z,17.86
2022-09-05T03:12:28.382Z,17.93
2022-09-05T03:15:32.252Z,18.18
2022-09-05T03:18:20.515Z,17.81
2022-09-05T03:21:34.039Z,17.27
2022-09-05T03:24:31.016Z,17.67
2022-09-05T03:27:37.766Z,17.54
2022-09-05T03:30:15.732Z,17.52
2022-09-05T03:33:23.485Z,17.87
2022-09-05T03:36:25.497Z,17.84
2022-09-05T03:39:23.764Z,17.76
2022-09-05T03:42:04.386Z,17.47
2022-09-05T03:45:12.599Z,17.51
2022-09-05T03:48:01.688Z,17.29
2022-09-05T03:57:11.443Z,17.35
2022-09-05T03:57:17.060Z,17.43
2022-09-05T03:57:41.889Z,17.27
2022-09-05T04:00:11.960Z,17.39
2022-09-05T04:07:32.417Z,17.31
2022-09-05T04:08:15.654Z,17.33
2022-09-05T04:08:42.252Z,17.19
2022-09-05T04:11:16.472Z,17.43
2022-09-05T04:13:49.248Z,17.33
2022-09-05T04:16:19.671Z,17.08
2022-09-05T04:18:51.654Z,16.74
2022-09-05T04:21:24.321Z,16.94
2022-09-05T04:24:03.430Z,16.74
2022-09-05T04:27:01.244Z,16.30
2022-09-05T04:29:40.774Z,16.61
2022-09-05T04:32:19.474Z,16.85
2022-09-05T04:35:09.186Z,17.04
2022-09-05T04:37:48.794Z,17.26
2022-09-05T04:40:45.751Z,17.20
2022-09-05T04:43:23.209Z,17.23
2022-09-05T04:45:54.515Z,17.38
2022-09-05T04:48:26.168Z,17.61
2022-09-05T04:51:04.105Z,17.58
2022-09-05T04:53:40.792Z,17.53
2022-09-05T04:56:14.212Z,17.56
2022-09-05T05:00:36.803Z,17.44
2022-09-05T05:05:59.891Z,17.38
2022-09-05T05:06:12.916Z,18.13
2022-09-05T05:07:22.186Z,18.59
2022-09-05T05:10:03.273Z,19.23
2022-09-05T05:18:01.445Z,19.51
2022-09-05T05:18:09.964Z,18.92
2022-09-05T05:18:56.111Z,18.26
2022-09-05T05:21:28.902Z,18.61
2022-09-05T05:23:58.740Z,18.82
2022-09-05T05:26:31.083Z,18.74
2022-09-05T05:29:02.089Z,19.17
2022-09-05T05:31:33.279Z,18.99
2022-09-05T05:34:24.208Z,18.91
2022-09-05T05:36:56.265Z,19.30
2022-09-05T05:39:30.160Z,19.55
2022-09-05T05:42:05.252Z,19.60
2022-09-05T05:44:50.826Z,19.91
2022-09-05T05:47:29.885Z,20.02
2022-09-05T05:50:03.748Z,20.28
2022-09-05T05:52:51.160Z,20.43
2022-09-05T05:55:53.121Z,20.54
2022-09-05T05:58:35.818Z,20.70
2022-09-05T06:01:43.204Z,20.89
2022-09-05T06:04:48.159Z,21.06
2022-09-05T06:07:23.770Z,21.28
2022-09-05T06:14:48.639Z,21.38
2022-09-05T06:15:06.636Z,21.32
2022-09-05T06:17:05.417Z,21.78
2022-09-05T06:22:07.084Z,21.52
2022-09-05T06:23:32.106Z,21.87
2022-09-05T06:26:42.546Z,21.93
2022-09-05T06:29:21.299Z,22.21
2022-09-05T06:32:02.864Z,22.41
2022-09-05T06:34:51.162Z,22.39
2022-09-05T06:37:27.200Z,22.31
2022-09-05T06:40:05.558Z,22.82
2022-09-05T06:42:43.557Z,22.64
2022-09-05T06:45:28.804Z,23.32
2022-09-05T06:48:03.737Z,23.50
2022-09-05T06:51:07.093Z,23.60
2022-09-05T06:54:09.998Z,23.32
2022-09-05T06:56:48.319Z,24.26
2022-09-05T06:59:49.751Z,24.09
2022-09-05T07:02:58.026Z,24.12
2022-09-05T07:05:37.154Z,23.97
2022-09-05T07:08:35.272Z,24.20
2022-09-05T07:11:16.266Z,24.13
2022-09-05T07:13:58.708Z,23.98
2022-09-05T07:16:41.876Z,23.95
2022-09-05T07:19:26.959Z,24.37
2022-09-05T07:22:45.944Z,24.67
2022-09-05T07:25:10.743Z,24.41
2022-09-05T07:28:25.761Z,25.25
2022-09-05T07:30:32.246Z,24.44
2022-09-05T07:33:01.531Z,24.61
2022-09-05T07:35:37.011Z,24.59
2022-09-05T07:38:15.134Z,24.49
2022-09-05T07:40:50.613Z,25.62
2022-09-05T07:43:23.453Z,24.94
2022-09-05T07:46:03.598Z,25.65
2022-09-05T07:48:35.798Z,25.31
2022-09-05T07:56:46.042Z,24.85
2022-09-05T07:57:01.959Z,26.17
2022-09-05T07:57:20.739Z,25.61
2022-09-05T07:59:39.251Z,25.19
2022-09-05T08:02:10.255Z,25.44
2022-09-05T08:04:40.897Z,27.28
2022-09-05T08:07:46.548Z,26.48
2022-09-05T08:10:09.121Z,26.75
2022-09-05T08:13:22.439Z,26.80
2022-09-05T08:16:11.015Z,27.32
2022-09-05T08:18:22.756Z,27.54
2022-09-05T08:20:53.224Z,27.83
2022-09-05T08:23:25.807Z,26.84
2022-09-05T08:25:59.514Z,27.93
2022-09-05T08:28:39.083Z,28.00
2022-09-05T08:31:09.231Z,28.11
2022-09-05T08:33:38.092Z,27.13
2022-09-05T08:36:10.805Z,27.68
2022-09-05T08:38:41.240Z,27.43
2022-09-05T08:41:16.024Z,27.42
2022-09-05T08:46:36.520Z,27.65
2022-09-05T08:46:50.058Z,28.34
2022-09-05T08:49:46.122Z,27.62
2022-09-05T08:52:16.961Z,28.07
2022-09-05T08:55:05.704Z,28.02
2022-09-05T08:58:05.593Z,28.24
2022-09-05T09:00:40.575Z,28.11
2022-09-05T09:03:17.801Z,28.16
2022-09-05T09:06:16.406Z,29.07
2022-09-05T09:09:08.311Z,28.79
2022-09-05T09:11:39.115Z,27.94
2022-09-05T09:14:31.109Z,28.82
2022-09-05T09:17:08.120Z,29.26
2022-09-05T09:19:46.962Z,28.51
2022-09-05T09:22:22.234Z,28.82
2022-09-05T09:25:15.193Z,28.30
2022-09-05T09:28:47.670Z,29.38
2022-09-05T09:30:58.094Z,29.46
2022-09-05T09:33:36.977Z,28.68
2022-09-05T09:36:10.125Z,29.37
2022-09-05T09:38:45.929Z,28.92
2022-09-05T09:41:36.701Z,29.27
2022-09-05T09:44:46.330Z,29.15
2022-09-05T09:47:15.734Z,29.03
2022-09-05T09:50:00.837Z,29.45
2022-09-05T09:52:50.750Z,30.05
2022-09-05T09:55:52.147Z,29.64
2022-09-05T09:58:41.159Z,28.53
2022-09-05T10:01:34.992Z,30.10
2022-09-05T10:07:08.689Z,30.51
2022-09-05T10:10:48.843Z,29.82
2022-09-05T10:11:41.377Z,29.82
2022-09-05T10:14:24.167Z,29.70
2022-09-05T10:17:11.968Z,29.94
2022-09-05T10:20:09.999Z,30.11
2022-09-05T10:23:06.255Z,30.14
2022-09-05T10:25:49.575Z,29.31
2022-09-05T10:28:27.229Z,29.64
2022-09-05T10:32:37.682Z,29.75
2022-09-05T10:35:14.946Z,29.18
2022-09-05T10:36:52.135Z,30.54
2022-09-05T10:39:25.575Z,30.80
2022-09-05T10:42:01.346Z,30.69
2022-09-05T10:44:38.888Z,30.58
2022-09-05T10:47:28.275Z,30.92
2022-09-05T10:50:04.791Z,31.35
2022-09-05T10:55:26.294Z,31.23
2022-09-05T10:58:00.952Z,30.93
2022-09-05T11:02:27.454Z,30.18
2022-09-05T11:03:50.246Z,31.30
2022-09-05T11:06:25.064Z,30.94
2022-09-05T11:09:02.578Z,30.35
2022-09-05T11:11:41.242Z,30.73
2022-09-05T11:14:27.423Z,31.09
2022-09-05T11:17:01.394Z,31.55
2022-09-05T11:19:35.671Z,31.58
2022-09-05T11:22:22.544Z,31.09
2022-09-05T11:24:55.656Z,30.95
2022-09-05T11:27:29.672Z,30.92
2022-09-05T11:30:02.764Z,30.19
2022-09-05T11:38:43.972Z,31.40
2022-09-05T11:39:55.338Z,31.48
2022-09-05T11:39:57.725Z,31.46
2022-09-05T11:41:55.791Z,31.66
2022-09-05T11:44:29.680Z,31.09
2022-09-05T11:47:33.197Z,32.02
2022-09-05T11:50:27.645Z,32.47
2022-09-05T11:53:31.976Z,32.71
2022-09-05T11:56:28.079Z,31.25
2022-09-05T11:59:13.967Z,32.35
2022-09-05T12:01:53.560Z,32.15
2022-09-05T12:04:43.818Z,32.16
2022-09-05T12:07:37.330Z,31.35
2022-09-05T12:10:46.284Z,32.11
2022-09-05T12:13:26.473Z,32.62
2022-09-05T12:16:07.517Z,31.87
2022-09-05T12:19:06.307Z,31.63
2022-09-05T12:22:09.648Z,32.10
2022-09-05T12:25:23.565Z,31.87
2022-09-05T12:27:57.189Z,32.72
2022-09-05T12:30:47.645Z,32.08
2022-09-05T12:36:02.434Z,32.88
2022-09-05T12:40:48.175Z,32.41
2022-09-05T12:41:32.839Z,32.69
2022-09-05T12:42:25.682Z,33.22
2022-09-05T12:45:10.011Z,33.41
2022-09-05T12:47:54.138Z,31.76
2022-09-05T12:50:33.246Z,32.49
2022-09-05T12:53:07.886Z,31.28
2022-09-05T12:55:40.615Z,31.75
2022-09-05T13:02:55.347Z,31.52
2022-09-05T13:03:13.003Z,32.80
2022-09-05T13:04:25.213Z,33.16
2022-09-05T13:07:01.150Z,31.82
2022-09-05T13:10:38.106Z,31.92
2022-09-05T13:14:55.030Z,32.26
2022-09-05T13:15:23.945Z,33.07
2022-09-05T13:17:59.245Z,33.25
2022-09-05T13:20:34.904Z,33.45
2022-09-05T13:23:13.336Z,33.20
2022-09-05T13:25:44.596Z,33.01
2022-09-05T13:28:15.595Z,33.53
2022-09-05T13:37:53.696Z,33.40
2022-09-05T13:37:59.939Z,33.74
2022-09-05T13:38:11.131Z,34.10
2022-09-05T13:39:28.389Z,34.12
2022-09-05T13:42:03.486Z,33.06
2022-09-05T13:44:35.999Z,33.44
2022-09-05T13:47:29.822Z,33.68
2022-09-05T13:50:08.772Z,33.04
2022-09-05T13:52:41.089Z,33.45
2022-09-05T13:55:21.484Z,33.89
2022-09-05T13:57:55.109Z,33.78
2022-09-05T14:01:05.589Z,33.80
2022-09-05T14:04:06.045Z,33.48
2022-09-05T14:10:11.927Z,32.70
2022-09-05T14:12:43.664Z,32.47
2022-09-05T14:15:27.087Z,32.83
2022-09-05T14:18:19.926Z,33.48
2022-09-05T14:21:24.906Z,33.39
2022-09-05T14:23:56.618Z,33.85
2022-09-05T14:26:30.531Z,34.36
2022-09-05T14:29:03.403Z,34.04
2022-09-05T14:37:03.453Z,34.16
2022-09-05T14:37:42.038Z,33.85
2022-09-05T14:38:04.393Z,33.90
2022-09-05T14:41:00.323Z,33.83
2022-09-05T14:43:56.706Z,33.29
2022-09-05T14:47:10.068Z,33.09
2022-09-05T14:50:27.568Z,32.78
2022-09-05T14:57:23.311Z,32.83
2022-09-05T15:02:46.196Z,32.49
2022-09-05T15:02:57.368Z,33.57
2022-09-05T15:04:36.235Z,33.68
2022-09-05T15:07:10.884Z,33.85
2022-09-05T15:12:17.766Z,32.38
2022-09-05T15:12:40.940Z,33.66
2022-09-05T15:15:23.058Z,33.32
2022-09-05T15:17:53.651Z,33.82
2022-09-05T15:20:33.248Z,32.27
2022-09-05T15:23:11.254Z,32.74
2022-09-05T15:25:48.072Z,33.54
2022-09-05T15:28:21.695Z,33.53
2022-09-05T15:30:58.298Z,32.66
2022-09-05T15:33:29.289Z,33.38
2022-09-05T15:35:58.724Z,33.32
2022-09-05T15:38:31.779Z,33.41
2022-09-05T15:41:21.240Z,33.51
2022-09-05T15:43:58.402Z,33.58
2022-09-05T15:46:39.571Z,33.78
2022-09-05T15:49:11.263Z,33.53
2022-09-05T15:51:46.473Z,33.44
2022-09-05T15:54:37.344Z,33.61
2022-09-05T15:57:17.497Z,33.54
2022-09-05T15:59:49.140Z,33.53
2022-09-05T16:02:21.705Z,33.04
2022-09-05T16:08:39.779Z,33.09
2022-09-05T16:10:40.810Z,32.95
2022-09-05T16:11:21.296Z,32.78
2022-09-05T16:13:41.709Z,33.05
2022-09-05T16:23:19.404Z,32.50
2022-09-05T16:23:26.016Z,31.92
2022-09-05T16:23:27.400Z,33.01
2022-09-05T16:24:59.377Z,32.47
2022-09-05T16:27:43.982Z,31.80
2022-09-05T16:30:15.770Z,31.50
2022-09-05T16:32:50.847Z,31.45
2022-09-05T16:35:26.247Z,31.61
2022-09-05T16:37:58.739Z,31.65
2022-09-05T16:40:30.938Z,32.07
2022-09-05T16:43:04.593Z,31.97
2022-09-05T16:45:39.256Z,32.32
2022-09-05T16:48:23.902Z,31.87
2022-09-05T16:50:57.693Z,31.89
2022-09-05T16:53:32.246Z,31.46
2022-09-05T16:56:04.925Z,31.79
2022-09-05T16:58:39.813Z,31.40
2022-09-05T17:01:20.229Z,31.76
2022-09-05T17:03:54.857Z,31.57
2022-09-05T17:06:26.137Z,31.50
2022-09-05T17:09:03.204Z,31.34
2022-09-05T17:12:00.002Z,31.61
2022-09-05T17:14:35.463Z,31.39
2022-09-05T17:17:57.909Z,31.48
2022-09-05T17:20:07.129Z,31.33
2022-09-05T17:27:10.545Z,31.23
2022-09-05T17:29:25.247Z,30.76
2022-09-05T17:29:42.214Z,30.40
2022-09-05T17:34:48.301Z,30.23
2022-09-05T17:37:48.263Z,30.43
2022-09-05T17:40:48.202Z,30.35
2022-09-05T17:43:28.520Z,30.10
2022-09-05T17:46:10.163Z,29.93
2022-09-05T17:49:17.857Z,29.69
2022-09-05T17:52:22.794Z,29.50
2022-09-05T17:54:53.905Z,28.75
2022-09-05T17:57:42.153Z,28.54
2022-09-05T18:00:45.415Z,28.70
2022-09-05T18:04:15.925Z,28.78
2022-09-05T18:06:59.018Z,28.65
2022-09-05T18:10:01.457Z,28.52
2022-09-05T18:16:10.892Z,28.05
2022-09-05T18:19:32.089Z,27.59
2022-09-05T18:21:48.458Z,27.51
2022-09-05T18:24:25.002Z,27.16
2022-09-05T18:27:15.046Z,27.13
2022-09-05T18:29:59.384Z,27.12
2022-09-05T18:32:42.522Z,27.13
2022-09-05T18:35:36.405Z,27.05
2022-09-05T18:38:52.314Z,27.00
2022-09-05T18:41:22.851Z,26.86
2022-09-05T18:44:19.836Z,26.72
2022-09-05T18:46:46.590Z,26.61
2022-09-05T18:50:25.400Z,26.53
2022-09-05T18:52:13.944Z,26.45
2022-09-05T18:54:43.439Z,26.40
2022-09-05T18:57:27.219Z,26.30
2022-09-05T19:00:00.795Z,26.26
2022-09-05T19:02:50.477Z,26.18
2022-09-05T19:05:34.028Z,26.10
2022-09-05T19:08:04.743Z,26.06
2022-09-05T19:10:36.889Z,25.92
2022-09-05T19:13:16.402Z,25.64
2022-09-05T19:15:48.349Z,25.63
2022-09-05T19:18:36.890Z,25.53
2022-09-05T19:21:11.812Z,25.38
2022-09-05T19:23:48.383Z,25.40
2022-09-05T19:26:17.026Z,24.96
2022-09-05T19:36:47.124Z,25.04
2022-09-05T19:36:57.979Z,25.11
2022-09-05T19:37:03.966Z,25.04
2022-09-05T19:37:30.212Z,25.01
2022-09-05T19:47:03.163Z,24.97
2022-09-05T19:47:40.245Z,24.87
2022-09-05T19:47:56.351Z,24.79
2022-09-05T19:48:35.111Z,24.79
2022-09-05T19:51:17.626Z,24.76
2022-09-05T19:53:56.551Z,24.77
2022-09-05T19:56:38.564Z,24.70
2022-09-05T19:59:17.844Z,24.67
2022-09-05T20:01:48.481Z,24.55
2022-09-05T20:04:18.936Z,24.49
2022-09-05T20:06:47.901Z,24.51
2022-09-05T20:09:17.995Z,24.35
2022-09-05T20:11:50.558Z,24.12
2022-09-05T20:14:21.735Z,24.08
2022-09-05T20:16:52.711Z,24.08
2022-09-05T20:19:28.762Z,24.13
2022-09-05T20:22:10.119Z,24.14
2022-09-05T20:24:49.260Z,24.10
2022-09-05T20:27:18.116Z,24.03
2022-09-05T20:29:55.737Z,24.05
2022-09-05T20:32:39.376Z,24.01
2022-09-05T20:37:26.951Z,24.00
2022-09-05T20:43:22.464Z,23.90
2022-09-05T20:43:24.418Z,23.92
2022-09-05T20:43:58.352Z,23.88
2022-09-05T20:51:36.564Z,23.85
2022-09-05T20:54:13.078Z,23.81
2022-09-05T20:54:26.711Z,23.64
2022-09-05T20:55:39.785Z,23.57
2022-09-05T20:58:12.085Z,23.57
2022-09-05T21:00:46.389Z,23.49
2022-09-05T21:03:36.694Z,23.44
2022-09-05T21:06:22.213Z,23.47
2022-09-05T21:08:51.979Z,23.48
2022-09-05T21:11:30.161Z,23.48
2022-09-05T21:14:01.967Z,23.36
2022-09-05T21:16:32.189Z,23.30
2022-09-05T21:19:00.770Z,23.32
2022-09-05T21:21:32.481Z,23.32
2022-09-05T21:24:16.967Z,23.31
2022-09-05T21:26:50.577Z,23.37
2022-09-05T21:29:27.576Z,23.30
2022-09-05T21:32:01.871Z,23.27
2022-09-05T21:34:32.917Z,23.28
2022-09-05T21:37:06.883Z,23.22
2022-09-05T21:39:40.154Z,23.17
2022-09-05T21:42:15.623Z,23.06
2022-09-05T21:47:39.905Z,22.93
2022-09-05T21:47:53.772Z,23.03
2022-09-05T21:50:31.630Z,22.64
2022-09-05T21:53:55.142Z,22.32
2022-09-05T21:59:17.909Z,22.67
2022-09-05T21:59:27.216Z,22.69
2022-09-05T22:01:51.929Z,22.49
2022-09-05T22:04:21.920Z,22.66
2022-09-05T22:06:53.133Z,22.76
2022-09-05T22:09:24.341Z,22.78
2022-09-05T22:11:52.810Z,22.77
2022-09-05T22:14:22.713Z,22.72
2022-09-05T22:16:53.514Z,22.55
2022-09-05T22:19:36.814Z,22.43
2022-09-05T22:22:16.074Z,22.46
2022-09-05T22:24:49.976Z,22.47
2022-09-05T22:27:20.133Z,22.54
2022-09-05T22:29:50.875Z,22.55
2022-09-05T22:32:32.372Z,22.41
2022-09-05T22:35:26.830Z,22.40
2022-09-05T22:37:59.672Z,22.40
2022-09-05T22:40:31.489Z,22.36
2022-09-05T22:43:01.616Z,22.43
2022-09-05T22:45:31.344Z,22.43
2022-09-05T22:48:00.001Z,22.56
2022-09-05T22:50:28.385Z,22.59
2022-09-05T22:52:56.756Z,22.49
2022-09-05T22:55:25.315Z,22.48
2022-09-05T22:57:55.111Z,22.51
2022-09-05T23:00:23.454Z,22.52
2022-09-05T23:02:57.596Z,22.51
2022-09-05T23:05:26.271Z,22.33
2022-09-05T23:07:57.828Z,22.31
2022-09-05T23:10:26.767Z,22.25
2022-09-05T23:12:56.607Z,22.26
2022-09-05T23:15:25.345Z,22.28
2022-09-05T23:17:54.398Z,22.22
2022-09-05T23:20:23.094Z,22.25
2022-09-05T23:22:51.470Z,22.26
2022-09-05T23:25:21.476Z,22.22
2022-09-05T23:27:50.354Z,22.19
2022-09-05T23:30:20.358Z,22.20
2022-09-05T23:32:50.093Z,22.15
2022-09-05T23:35:19.336Z,22.15
2022-09-05T23:37:48.883Z,22.00
2022-09-05T23:40:20.039Z,21.74
2022-09-05T23:42:53.024Z,21.90
2022-09-05T23:45:23.043Z,21.74
2022-09-05T23:47:51.879Z,21.57
2022-09-05T23:50:21.155Z,21.81
2022-09-05T23:52:49.763Z,21.85
2022-09-05T23:55:19.627Z,21.86
2022-09-05T23:57:48.272Z,21.55
